sensor_id;sensor_type;location;lat;lon;timestamp;temperature;humidity
25923;DHT22;13725;51.170;4.442;2023-09-12T00:01:45;21.10;99.90
25923;DHT22;13725;51.170;4.442;2023-09-12T00:04:11;21.10;99.90
25923;DHT22;13725;51.170;4.442;2023-09-12T00:06:37;21.00;99.90
25923;DHT22;13725;51.170;4.442;2023-09-12T00:09:03;21.00;99.90
25923;DHT22;13725;51.170;4.442;2023-09-12T00:11:32;21.00;99.90
25923;DHT22;13725;51.170;4.442;2023-09-12T00:13:58;20.90;99.90
25923;DHT22;13725;51.170;4.442;2023-09-12T00:16:25;20.90;99.90
25923;DHT22;13725;51.170;4.442;2023-09-12T00:18:50;20.90;99.90
25923;DHT22;13725;51.170;4.442;2023-09-12T00:21:16;20.90;99.90
25923;DHT22;13725;51.170;4.442;2023-09-12T00:23:42;20.90;99.90
25923;DHT22;13725;51.170;4.442;2023-09-12T00:26:08;20.90;99.90
25923;DHT22;13725;51.170;4.442;2023-09-12T00:28:35;20.90;99.90
25923;DHT22;13725;51.170;4.442;2023-09-12T00:31:01;20.90;99.90
25923;DHT22;13725;51.170;4.442;2023-09-12T00:33:27;20.90;99.90
25923;DHT22;13725;51.170;4.442;2023-09-12T00:35:52;20.90;99.90
25923;DHT22;13725;51.170;4.442;2023-09-12T00:38:18;20.90;99.90
25923;DHT22;13725;51.170;4.442;2023-09-12T00:40:44;20.90;99.90
25923;DHT22;13725;51.170;4.442;2023-09-12T00:43:10;20.90;99.90
25923;DHT22;13725;51.170;4.442;2023-09-12T00:45:36;21.00;99.90
25923;DHT22;13725;51.170;4.442;2023-09-12T00:48:04;21.00;99.90
25923;DHT22;13725;51.170;4.442;2023-09-12T00:50:31;21.00;99.90
25923;DHT22;13725;51.170;4.442;2023-09-12T00:52:58;21.10;99.90
25923;DHT22;13725;51.170;4.442;2023-09-12T00:55:25;21.10;99.90
25923;DHT22;13725;51.170;4.442;2023-09-12T00:57:52;21.20;99.90
25923;DHT22;13725;51.170;4.442;2023-09-12T01:00:18;21.20;99.90
25923;DHT22;13725;51.170;4.442;2023-09-12T01:02:45;21.20;99.90
25923;DHT22;13725;51.170;4.442;2023-09-12T01:05:13;21.10;99.90
25923;DHT22;13725;51.170;4.442;2023-09-12T01:07:40;21.10;99.90
25923;DHT22;13725;51.170;4.442;2023-09-12T01:10:08;21.10;99.90
25923;DHT22;13725;51.170;4.442;2023-09-12T01:12:36;21.10;99.90
25923;DHT22;13725;51.170;4.442;2023-09-12T01:15:02;21.10;99.90
25923;DHT22;13725;51.170;4.442;2023-09-12T01:17:31;21.10;99.90
25923;DHT22;13725;51.170;4.442;2023-09-12T01:19:58;21.10;99.90
25923;DHT22;13725;51.170;4.442;2023-09-12T01:25:23;21.00;99.90
25923;DHT22;13725;51.170;4.442;2023-09-12T01:27:55;21.00;99.90
25923;DHT22;13725;51.170;4.442;2023-09-12T01:30:25;21.00;99.90
25923;DHT22;13725;51.170;4.442;2023-09-12T01:32:53;21.00;99.90
25923;DHT22;13725;51.170;4.442;2023-09-12T01:35:19;21.00;99.90
25923;DHT22;13725;51.170;4.442;2023-09-12T01:37:45;21.00;99.90
25923;DHT22;13725;51.170;4.442;2023-09-12T01:40:11;20.90;99.90
25923;DHT22;13725;51.170;4.442;2023-09-12T01:42:43;20.90;99.90
25923;DHT22;13725;51.170;4.442;2023-09-12T01:45:11;20.80;99.90
25923;DHT22;13725;51.170;4.442;2023-09-12T01:47:39;20.80;99.90
25923;DHT22;13725;51.170;4.442;2023-09-12T01:50:06;20.80;99.90
25923;DHT22;13725;51.170;4.442;2023-09-12T01:52:33;20.90;99.90
25923;DHT22;13725;51.170;4.442;2023-09-12T01:54:59;20.80;99.90
25923;DHT22;13725;51.170;4.442;2023-09-12T01:57:27;20.90;99.90
25923;DHT22;13725;51.170;4.442;2023-09-12T01:59:53;20.90;99.90
25923;DHT22;13725;51.170;4.442;2023-09-12T02:02:19;21.00;99.90
25923;DHT22;13725;51.170;4.442;2023-09-12T02:04:55;21.00;99.90
25923;DHT22;13725;51.170;4.442;2023-09-12T02:07:28;21.00;99.90
25923;DHT22;13725;51.170;4.442;2023-09-12T02:09:55;21.00;99.90
25923;DHT22;13725;51.170;4.442;2023-09-12T02:12:21;21.10;99.90
25923;DHT22;13725;51.170;4.442;2023-09-12T02:14:47;21.10;99.90
25923;DHT22;13725;51.170;4.442;2023-09-12T02:17:12;21.20;99.90
25923;DHT22;13725;51.170;4.442;2023-09-12T02:19:38;21.20;99.90
25923;DHT22;13725;51.170;4.442;2023-09-12T02:22:04;21.20;99.90
25923;DHT22;13725;51.170;4.442;2023-09-12T02:24:30;21.20;99.90
25923;DHT22;13725;51.170;4.442;2023-09-12T02:26:55;21.20;99.90
25923;DHT22;13725;51.170;4.442;2023-09-12T02:29:21;21.30;99.90
25923;DHT22;13725;51.170;4.442;2023-09-12T02:31:47;21.30;99.90
25923;DHT22;13725;51.170;4.442;2023-09-12T02:34:13;21.30;99.90
25923;DHT22;13725;51.170;4.442;2023-09-12T02:36:38;21.30;99.90
25923;DHT22;13725;51.170;4.442;2023-09-12T02:39:04;21.30;99.90
25923;DHT22;13725;51.170;4.442;2023-09-12T02:41:30;21.30;99.90
25923;DHT22;13725;51.170;4.442;2023-09-12T02:43:56;21.30;99.90
25923;DHT22;13725;51.170;4.442;2023-09-12T02:46:22;21.30;99.90
25923;DHT22;13725;51.170;4.442;2023-09-12T02:48:48;21.30;99.90
25923;DHT22;13725;51.170;4.442;2023-09-12T02:51:14;21.20;99.90
25923;DHT22;13725;51.170;4.442;2023-09-12T02:53:41;21.10;99.90
25923;DHT22;13725;51.170;4.442;2023-09-12T02:56:06;21.00;99.90
25923;DHT22;13725;51.170;4.442;2023-09-12T02:58:32;20.90;99.90
25923;DHT22;13725;51.170;4.442;2023-09-12T03:00:58;20.90;99.90
25923;DHT22;13725;51.170;4.442;2023-09-12T03:03:24;20.90;99.90
25923;DHT22;13725;51.170;4.442;2023-09-12T03:05:58;20.90;99.90
25923;DHT22;13725;51.170;4.442;2023-09-12T03:08:24;20.90;99.90
25923;DHT22;13725;51.170;4.442;2023-09-12T03:10:57;20.90;99.90
25923;DHT22;13725;51.170;4.442;2023-09-12T03:13:25;20.90;99.90
25923;DHT22;13725;51.170;4.442;2023-09-12T03:15:51;20.90;99.90
25923;DHT22;13725;51.170;4.442;2023-09-12T03:18:17;21.00;99.90
25923;DHT22;13725;51.170;4.442;2023-09-12T03:20:43;21.00;99.90
25923;DHT22;13725;51.170;4.442;2023-09-12T03:23:09;21.00;99.90
25923;DHT22;13725;51.170;4.442;2023-09-12T03:25:38;21.00;99.90
25923;DHT22;13725;51.170;4.442;2023-09-12T03:28:05;21.00;99.90
25923;DHT22;13725;51.170;4.442;2023-09-12T03:30:35;21.00;99.90
25923;DHT22;13725;51.170;4.442;2023-09-12T03:33:01;21.00;99.90
25923;DHT22;13725;51.170;4.442;2023-09-12T03:35:32;21.00;99.90
25923;DHT22;13725;51.170;4.442;2023-09-12T03:38:00;21.00;99.90
25923;DHT22;13725;51.170;4.442;2023-09-12T03:40:28;21.00;99.90
25923;DHT22;13725;51.170;4.442;2023-09-12T03:42:55;21.10;99.90
25923;DHT22;13725;51.170;4.442;2023-09-12T03:45:21;21.10;99.90
25923;DHT22;13725;51.170;4.442;2023-09-12T03:47:46;21.10;99.90
25923;DHT22;13725;51.170;4.442;2023-09-12T03:50:14;21.10;99.90
25923;DHT22;13725;51.170;4.442;2023-09-12T03:52:40;21.10;99.90
25923;DHT22;13725;51.170;4.442;2023-09-12T03:55:06;21.10;99.90
25923;DHT22;13725;51.170;4.442;2023-09-12T03:57:33;21.10;99.90
25923;DHT22;13725;51.170;4.442;2023-09-12T03:59:59;21.10;99.90
25923;DHT22;13725;51.170;4.442;2023-09-12T04:02:25;21.00;99.90
25923;DHT22;13725;51.170;4.442;2023-09-12T04:04:51;21.00;99.90
25923;DHT22;13725;51.170;4.442;2023-09-12T04:07:18;21.00;99.90
25923;DHT22;13725;51.170;4.442;2023-09-12T04:09:44;21.00;99.90
25923;DHT22;13725;51.170;4.442;2023-09-12T04:12:10;21.00;99.90
25923;DHT22;13725;51.170;4.442;2023-09-12T04:14:36;21.00;99.90
25923;DHT22;13725;51.170;4.442;2023-09-12T04:17:02;21.00;99.90
25923;DHT22;13725;51.170;4.442;2023-09-12T04:19:30;21.00;99.90
25923;DHT22;13725;51.170;4.442;2023-09-12T04:21:56;21.00;99.90
25923;DHT22;13725;51.170;4.442;2023-09-12T04:24:21;20.90;99.90
25923;DHT22;13725;51.170;4.442;2023-09-12T04:26:47;21.00;99.90
25923;DHT22;13725;51.170;4.442;2023-09-12T04:29:13;21.00;99.90
25923;DHT22;13725;51.170;4.442;2023-09-12T04:31:39;20.90;99.90
25923;DHT22;13725;51.170;4.442;2023-09-12T04:34:05;21.00;99.90
25923;DHT22;13725;51.170;4.442;2023-09-12T04:36:30;21.00;99.90
25923;DHT22;13725;51.170;4.442;2023-09-12T04:38:57;21.00;99.90
25923;DHT22;13725;51.170;4.442;2023-09-12T04:41:23;21.00;99.90
25923;DHT22;13725;51.170;4.442;2023-09-12T04:43:49;21.00;99.90
25923;DHT22;13725;51.170;4.442;2023-09-12T04:46:15;21.00;99.90
25923;DHT22;13725;51.170;4.442;2023-09-12T04:48:41;21.10;99.90
25923;DHT22;13725;51.170;4.442;2023-09-12T04:51:07;21.00;99.90
25923;DHT22;13725;51.170;4.442;2023-09-12T04:53:33;21.00;99.90
25923;DHT22;13725;51.170;4.442;2023-09-12T04:56:04;21.00;99.90
25923;DHT22;13725;51.170;4.442;2023-09-12T04:58:32;21.00;99.90
25923;DHT22;13725;51.170;4.442;2023-09-12T05:00:58;21.10;99.90
25923;DHT22;13725;51.170;4.442;2023-09-12T05:03:23;21.00;99.90
25923;DHT22;13725;51.170;4.442;2023-09-12T05:05:50;21.00;99.90
25923;DHT22;13725;51.170;4.442;2023-09-12T05:08:16;21.00;99.90
25923;DHT22;13725;51.170;4.442;2023-09-12T05:10:46;21.00;99.90
25923;DHT22;13725;51.170;4.442;2023-09-12T05:13:13;20.90;99.90
25923;DHT22;13725;51.170;4.442;2023-09-12T05:15:40;20.80;99.90
25923;DHT22;13725;51.170;4.442;2023-09-12T05:18:06;20.90;99.90
25923;DHT22;13725;51.170;4.442;2023-09-12T05:20:33;20.90;99.90
25923;DHT22;13725;51.170;4.442;2023-09-12T05:22:58;20.90;99.90
25923;DHT22;13725;51.170;4.442;2023-09-12T05:25:24;20.80;99.90
25923;DHT22;13725;51.170;4.442;2023-09-12T05:27:52;20.80;99.90
25923;DHT22;13725;51.170;4.442;2023-09-12T05:30:18;20.80;99.90
25923;DHT22;13725;51.170;4.442;2023-09-12T05:32:45;20.70;99.90
25923;DHT22;13725;51.170;4.442;2023-09-12T05:35:11;20.70;99.90
25923;DHT22;13725;51.170;4.442;2023-09-12T05:37:37;20.60;99.90
25923;DHT22;13725;51.170;4.442;2023-09-12T05:40:03;20.50;99.90
25923;DHT22;13725;51.170;4.442;2023-09-12T05:42:29;20.50;99.90
25923;DHT22;13725;51.170;4.442;2023-09-12T05:44:55;20.50;99.90
25923;DHT22;13725;51.170;4.442;2023-09-12T05:47:22;20.50;99.90
25923;DHT22;13725;51.170;4.442;2023-09-12T05:49:48;20.50;99.90
25923;DHT22;13725;51.170;4.442;2023-09-12T05:52:14;20.60;99.90
25923;DHT22;13725;51.170;4.442;2023-09-12T05:54:43;20.70;99.90
25923;DHT22;13725;51.170;4.442;2023-09-12T05:57:09;20.80;99.90
25923;DHT22;13725;51.170;4.442;2023-09-12T05:59:37;20.80;99.90
25923;DHT22;13725;51.170;4.442;2023-09-12T06:02:07;20.90;99.90
25923;DHT22;13725;51.170;4.442;2023-09-12T06:04:35;21.00;99.90
25923;DHT22;13725;51.170;4.442;2023-09-12T06:07:05;21.00;99.90
25923;DHT22;13725;51.170;4.442;2023-09-12T06:09:31;21.10;99.90
25923;DHT22;13725;51.170;4.442;2023-09-12T06:11:57;21.10;99.90
25923;DHT22;13725;51.170;4.442;2023-09-12T06:14:23;21.10;99.90
25923;DHT22;13725;51.170;4.442;2023-09-12T06:16:48;21.10;99.90
25923;DHT22;13725;51.170;4.442;2023-09-12T06:19:14;21.20;99.90
25923;DHT22;13725;51.170;4.442;2023-09-12T06:21:41;21.20;99.90
25923;DHT22;13725;51.170;4.442;2023-09-12T06:24:20;21.30;99.90
25923;DHT22;13725;51.170;4.442;2023-09-12T06:26:49;21.30;99.90
25923;DHT22;13725;51.170;4.442;2023-09-12T06:29:15;21.30;99.90
25923;DHT22;13725;51.170;4.442;2023-09-12T06:31:41;21.30;99.90
25923;DHT22;13725;51.170;4.442;2023-09-12T06:34:08;21.40;99.90
25923;DHT22;13725;51.170;4.442;2023-09-12T06:36:34;21.50;99.90
25923;DHT22;13725;51.170;4.442;2023-09-12T06:39:00;21.60;99.90
25923;DHT22;13725;51.170;4.442;2023-09-12T06:41:26;21.70;99.90
25923;DHT22;13725;51.170;4.442;2023-09-12T06:43:53;21.90;99.90
25923;DHT22;13725;51.170;4.442;2023-09-12T06:46:22;22.00;99.90
25923;DHT22;13725;51.170;4.442;2023-09-12T06:48:48;22.30;99.90
25923;DHT22;13725;51.170;4.442;2023-09-12T06:51:16;22.60;99.90
25923;DHT22;13725;51.170;4.442;2023-09-12T06:53:43;23.00;99.90
25923;DHT22;13725;51.170;4.442;2023-09-12T06:56:09;23.70;99.90
25923;DHT22;13725;51.170;4.442;2023-09-12T06:58:35;24.40;99.90
25923;DHT22;13725;51.170;4.442;2023-09-12T07:01:04;25.10;99.90
25923;DHT22;13725;51.170;4.442;2023-09-12T07:03:34;25.80;99.90
25923;DHT22;13725;51.170;4.442;2023-09-12T07:06:02;26.40;99.90
25923;DHT22;13725;51.170;4.442;2023-09-12T07:08:32;27.10;99.90
25923;DHT22;13725;51.170;4.442;2023-09-12T07:10:58;27.40;99.90
25923;DHT22;13725;51.170;4.442;2023-09-12T07:13:31;27.60;99.90
25923;DHT22;13725;51.170;4.442;2023-09-12T07:15:57;27.80;99.90
25923;DHT22;13725;51.170;4.442;2023-09-12T07:18:23;27.50;99.90
25923;DHT22;13725;51.170;4.442;2023-09-12T07:20:59;28.00;99.90
25923;DHT22;13725;51.170;4.442;2023-09-12T07:23:24;29.10;99.90
25923;DHT22;13725;51.170;4.442;2023-09-12T07:25:50;29.80;99.90
25923;DHT22;13725;51.170;4.442;2023-09-12T07:28:16;30.60;99.90
25923;DHT22;13725;51.170;4.442;2023-09-12T07:30:42;31.20;99.90
25923;DHT22;13725;51.170;4.442;2023-09-12T07:33:10;31.70;99.90
25923;DHT22;13725;51.170;4.442;2023-09-12T07:35:36;31.80;99.90
25923;DHT22;13725;51.170;4.442;2023-09-12T07:38:02;31.20;99.90
25923;DHT22;13725;51.170;4.442;2023-09-12T07:40:28;30.50;99.90
25923;DHT22;13725;51.170;4.442;2023-09-12T07:42:55;30.20;99.90
25923;DHT22;13725;51.170;4.442;2023-09-12T07:45:21;29.50;99.90
25923;DHT22;13725;51.170;4.442;2023-09-12T07:47:47;28.80;99.90
25923;DHT22;13725;51.170;4.442;2023-09-12T07:50:16;28.20;99.90
25923;DHT22;13725;51.170;4.442;2023-09-12T07:52:42;27.90;99.90
25923;DHT22;13725;51.170;4.442;2023-09-12T07:55:08;27.60;99.90
25923;DHT22;13725;51.170;4.442;2023-09-12T07:57:34;27.40;99.90
25923;DHT22;13725;51.170;4.442;2023-09-12T08:00:01;27.30;99.90
25923;DHT22;13725;51.170;4.442;2023-09-12T08:02:26;27.50;99.90
25923;DHT22;13725;51.170;4.442;2023-09-12T08:04:52;28.00;99.90
25923;DHT22;13725;51.170;4.442;2023-09-12T08:07:19;29.00;99.90
25923;DHT22;13725;51.170;4.442;2023-09-12T08:09:56;29.20;99.90
25923;DHT22;13725;51.170;4.442;2023-09-12T08:12:25;28.60;99.90
25923;DHT22;13725;51.170;4.442;2023-09-12T08:14:52;27.90;99.90
25923;DHT22;13725;51.170;4.442;2023-09-12T08:17:18;27.40;99.90
25923;DHT22;13725;51.170;4.442;2023-09-12T08:19:45;27.10;99.90
25923;DHT22;13725;51.170;4.442;2023-09-12T08:22:12;27.00;99.90
25923;DHT22;13725;51.170;4.442;2023-09-12T08:24:38;26.90;99.90
25923;DHT22;13725;51.170;4.442;2023-09-12T08:27:05;26.90;99.90
25923;DHT22;13725;51.170;4.442;2023-09-12T08:29:32;27.20;99.90
25923;DHT22;13725;51.170;4.442;2023-09-12T08:31:58;27.90;99.90
25923;DHT22;13725;51.170;4.442;2023-09-12T08:34:25;28.70;99.90
25923;DHT22;13725;51.170;4.442;2023-09-12T08:36:51;29.80;99.90
25923;DHT22;13725;51.170;4.442;2023-09-12T08:39:22;31.30;99.90
25923;DHT22;13725;51.170;4.442;2023-09-12T08:41:49;31.90;99.90
25923;DHT22;13725;51.170;4.442;2023-09-12T08:44:15;31.40;99.90
25923;DHT22;13725;51.170;4.442;2023-09-12T08:46:42;30.60;99.90
25923;DHT22;13725;51.170;4.442;2023-09-12T08:49:10;30.00;99.90
25923;DHT22;13725;51.170;4.442;2023-09-12T08:51:39;29.40;99.90
25923;DHT22;13725;51.170;4.442;2023-09-12T08:54:06;28.90;99.90
25923;DHT22;13725;51.170;4.442;2023-09-12T08:56:40;28.70;99.90
25923;DHT22;13725;51.170;4.442;2023-09-12T08:59:08;28.40;99.90
25923;DHT22;13725;51.170;4.442;2023-09-12T09:01:36;28.10;99.90
25923;DHT22;13725;51.170;4.442;2023-09-12T09:04:03;27.90;99.90
25923;DHT22;13725;51.170;4.442;2023-09-12T09:06:31;27.80;99.90
25923;DHT22;13725;51.170;4.442;2023-09-12T09:08:59;27.70;99.90
25923;DHT22;13725;51.170;4.442;2023-09-12T09:11:25;27.80;99.90
25923;DHT22;13725;51.170;4.442;2023-09-12T09:13:54;27.80;99.90
25923;DHT22;13725;51.170;4.442;2023-09-12T09:16:20;27.90;99.90
25923;DHT22;13725;51.170;4.442;2023-09-12T09:19:00;27.90;99.90
25923;DHT22;13725;51.170;4.442;2023-09-12T09:21:28;28.30;99.90
25923;DHT22;13725;51.170;4.442;2023-09-12T09:23:58;29.60;99.90
25923;DHT22;13725;51.170;4.442;2023-09-12T09:26:24;30.90;99.90
25923;DHT22;13725;51.170;4.442;2023-09-12T09:29:08;32.10;99.90
25923;DHT22;13725;51.170;4.442;2023-09-12T09:31:34;33.70;99.90
25923;DHT22;13725;51.170;4.442;2023-09-12T09:34:01;34.10;99.90
25923;DHT22;13725;51.170;4.442;2023-09-12T09:36:28;35.00;99.90
25923;DHT22;13725;51.170;4.442;2023-09-12T09:39:00;36.00;99.90
25923;DHT22;13725;51.170;4.442;2023-09-12T09:41:30;36.40;99.90
25923;DHT22;13725;51.170;4.442;2023-09-12T09:43:56;36.90;99.00
25923;DHT22;13725;51.170;4.442;2023-09-12T09:46:22;37.50;96.80
25923;DHT22;13725;51.170;4.442;2023-09-12T09:48:49;38.60;94.70
25923;DHT22;13725;51.170;4.442;2023-09-12T09:51:16;39.70;91.90
25923;DHT22;13725;51.170;4.442;2023-09-12T09:53:42;40.50;89.00
25923;DHT22;13725;51.170;4.442;2023-09-12T09:56:14;40.80;83.80
25923;DHT22;13725;51.170;4.442;2023-09-12T09:58:50;41.00;83.10
25923;DHT22;13725;51.170;4.442;2023-09-12T10:01:21;41.00;82.20
25923;DHT22;13725;51.170;4.442;2023-09-12T10:03:49;40.80;81.60
25923;DHT22;13725;51.170;4.442;2023-09-12T10:06:17;40.40;81.60
25923;DHT22;13725;51.170;4.442;2023-09-12T10:08:44;39.50;81.80
25923;DHT22;13725;51.170;4.442;2023-09-12T10:11:14;38.40;83.80
25923;DHT22;13725;51.170;4.442;2023-09-12T10:13:48;38.10;85.70
25923;DHT22;13725;51.170;4.442;2023-09-12T10:16:16;39.30;83.50
25923;DHT22;13725;51.170;4.442;2023-09-12T10:18:49;40.70;80.30
25923;DHT22;13725;51.170;4.442;2023-09-12T10:21:25;41.80;76.60
25923;DHT22;13725;51.170;4.442;2023-09-12T10:23:55;42.30;74.50
25923;DHT22;13725;51.170;4.442;2023-09-12T10:26:21;43.10;73.10
25923;DHT22;13725;51.170;4.442;2023-09-12T10:28:48;43.60;71.30
25923;DHT22;13725;51.170;4.442;2023-09-12T10:31:16;43.80;69.30
25923;DHT22;13725;51.170;4.442;2023-09-12T10:33:43;44.30;69.30
25923;DHT22;13725;51.170;4.442;2023-09-12T10:36:11;44.60;66.40
25923;DHT22;13725;51.170;4.442;2023-09-12T10:38:42;44.70;66.30
25923;DHT22;13725;51.170;4.442;2023-09-12T10:41:13;45.00;64.90
25923;DHT22;13725;51.170;4.442;2023-09-12T10:43:43;45.40;64.00
25923;DHT22;13725;51.170;4.442;2023-09-12T10:46:12;45.40;62.60
25923;DHT22;13725;51.170;4.442;2023-09-12T10:48:38;45.30;62.60
25923;DHT22;13725;51.170;4.442;2023-09-12T10:51:08;45.40;60.60
25923;DHT22;13725;51.170;4.442;2023-09-12T10:53:35;45.70;60.40
25923;DHT22;13725;51.170;4.442;2023-09-12T10:56:16;45.70;58.70
25923;DHT22;13725;51.170;4.442;2023-09-12T11:01:30;45.80;59.40
25923;DHT22;13725;51.170;4.442;2023-09-12T11:03:56;45.70;55.40
25923;DHT22;13725;51.170;4.442;2023-09-12T11:06:30;45.50;56.20
25923;DHT22;13725;51.170;4.442;2023-09-12T11:11:44;46.10;57.30
25923;DHT22;13725;51.170;4.442;2023-09-12T11:14:12;46.20;57.00
25923;DHT22;13725;51.170;4.442;2023-09-12T11:16:37;46.40;56.30
25923;DHT22;13725;51.170;4.442;2023-09-12T11:19:20;46.40;55.30
25923;DHT22;13725;51.170;4.442;2023-09-12T11:21:51;46.60;55.40
25923;DHT22;13725;51.170;4.442;2023-09-12T11:24:18;46.70;55.40
25923;DHT22;13725;51.170;4.442;2023-09-12T11:26:58;46.90;55.20
25923;DHT22;13725;51.170;4.442;2023-09-12T11:29:29;47.10;54.50
25923;DHT22;13725;51.170;4.442;2023-09-12T11:31:57;47.10;54.70
25923;DHT22;13725;51.170;4.442;2023-09-12T11:34:27;46.90;54.10
25923;DHT22;13725;51.170;4.442;2023-09-12T11:36:57;47.10;53.10
25923;DHT22;13725;51.170;4.442;2023-09-12T11:39:25;47.00;53.30
25923;DHT22;13725;51.170;4.442;2023-09-12T11:41:52;46.90;53.90
25923;DHT22;13725;51.170;4.442;2023-09-12T11:44:19;47.20;53.20
25923;DHT22;13725;51.170;4.442;2023-09-12T11:46:50;47.30;53.70
25923;DHT22;13725;51.170;4.442;2023-09-12T11:49:18;47.30;54.80
25923;DHT22;13725;51.170;4.442;2023-09-12T11:51:53;47.00;53.10
25923;DHT22;13725;51.170;4.442;2023-09-12T11:54:24;47.00;53.00
25923;DHT22;13725;51.170;4.442;2023-09-12T11:56:50;47.00;53.40
25923;DHT22;13725;51.170;4.442;2023-09-12T11:59:25;47.00;53.30
25923;DHT22;13725;51.170;4.442;2023-09-12T12:01:52;47.10;52.90
25923;DHT22;13725;51.170;4.442;2023-09-12T12:04:20;46.60;53.10
25923;DHT22;13725;51.170;4.442;2023-09-12T12:06:48;46.60;52.30
25923;DHT22;13725;51.170;4.442;2023-09-12T12:09:14;46.40;52.60
25923;DHT22;13725;51.170;4.442;2023-09-12T12:11:41;46.20;53.40
25923;DHT22;13725;51.170;4.442;2023-09-12T12:14:15;46.00;53.80
25923;DHT22;13725;51.170;4.442;2023-09-12T12:16:42;45.60;54.40
25923;DHT22;13725;51.170;4.442;2023-09-12T12:19:14;45.20;53.90
25923;DHT22;13725;51.170;4.442;2023-09-12T12:21:43;45.30;54.60
25923;DHT22;13725;51.170;4.442;2023-09-12T12:24:14;45.30;54.90
25923;DHT22;13725;51.170;4.442;2023-09-12T12:26:46;45.40;55.00
25923;DHT22;13725;51.170;4.442;2023-09-12T12:29:11;45.30;55.50
25923;DHT22;13725;51.170;4.442;2023-09-12T12:31:39;45.10;55.20
25923;DHT22;13725;51.170;4.442;2023-09-12T12:34:06;45.00;55.30
25923;DHT22;13725;51.170;4.442;2023-09-12T12:36:32;44.60;55.10
25923;DHT22;13725;51.170;4.442;2023-09-12T12:38:58;44.30;55.00
25923;DHT22;13725;51.170;4.442;2023-09-12T12:41:29;44.10;54.80
25923;DHT22;13725;51.170;4.442;2023-09-12T12:44:01;43.90;57.00
25923;DHT22;13725;51.170;4.442;2023-09-12T12:46:29;43.70;56.60
25923;DHT22;13725;51.170;4.442;2023-09-12T12:48:54;43.40;55.60
25923;DHT22;13725;51.170;4.442;2023-09-12T12:51:25;43.60;56.50
25923;DHT22;13725;51.170;4.442;2023-09-12T12:53:52;43.70;56.70
25923;DHT22;13725;51.170;4.442;2023-09-12T12:56:20;43.40;55.80
25923;DHT22;13725;51.170;4.442;2023-09-12T12:58:57;43.00;57.00
25923;DHT22;13725;51.170;4.442;2023-09-12T13:01:23;42.40;55.30
25923;DHT22;13725;51.170;4.442;2023-09-12T13:03:50;41.80;56.90
25923;DHT22;13725;51.170;4.442;2023-09-12T13:06:18;40.60;58.50
25923;DHT22;13725;51.170;4.442;2023-09-12T13:08:45;39.90;61.40
25923;DHT22;13725;51.170;4.442;2023-09-12T13:11:13;39.30;60.80
25923;DHT22;13725;51.170;4.442;2023-09-12T13:13:40;39.00;62.00
25923;DHT22;13725;51.170;4.442;2023-09-12T13:16:09;39.60;62.00
25923;DHT22;13725;51.170;4.442;2023-09-12T13:18:37;40.00;61.50
25923;DHT22;13725;51.170;4.442;2023-09-12T13:21:03;39.60;61.70
25923;DHT22;13725;51.170;4.442;2023-09-12T13:23:29;39.30;62.20
25923;DHT22;13725;51.170;4.442;2023-09-12T13:25:56;39.40;63.00
25923;DHT22;13725;51.170;4.442;2023-09-12T13:28:22;39.70;63.30
25923;DHT22;13725;51.170;4.442;2023-09-12T13:30:52;40.10;62.10
25923;DHT22;13725;51.170;4.442;2023-09-12T13:33:18;40.00;61.80
25923;DHT22;13725;51.170;4.442;2023-09-12T13:35:44;40.20;60.60
25923;DHT22;13725;51.170;4.442;2023-09-12T13:38:09;39.90;61.20
25923;DHT22;13725;51.170;4.442;2023-09-12T13:40:39;39.30;62.30
25923;DHT22;13725;51.170;4.442;2023-09-12T13:43:05;39.10;63.40
25923;DHT22;13725;51.170;4.442;2023-09-12T13:45:32;38.80;63.30
25923;DHT22;13725;51.170;4.442;2023-09-12T13:47:58;38.50;64.70
25923;DHT22;13725;51.170;4.442;2023-09-12T13:50:25;38.00;66.70
25923;DHT22;13725;51.170;4.442;2023-09-12T13:52:52;37.30;65.80
25923;DHT22;13725;51.170;4.442;2023-09-12T13:55:18;36.50;68.60
25923;DHT22;13725;51.170;4.442;2023-09-12T13:57:44;35.60;69.80
25923;DHT22;13725;51.170;4.442;2023-09-12T14:00:10;34.90;72.80
25923;DHT22;13725;51.170;4.442;2023-09-12T14:02:36;34.10;74.60
25923;DHT22;13725;51.170;4.442;2023-09-12T14:05:01;33.60;76.70
25923;DHT22;13725;51.170;4.442;2023-09-12T14:07:27;33.10;78.80
25923;DHT22;13725;51.170;4.442;2023-09-12T14:09:53;32.70;81.00
25923;DHT22;13725;51.170;4.442;2023-09-12T14:12:24;32.30;82.70
25923;DHT22;13725;51.170;4.442;2023-09-12T14:14:51;32.00;84.10
25923;DHT22;13725;51.170;4.442;2023-09-12T14:17:17;31.70;86.00
25923;DHT22;13725;51.170;4.442;2023-09-12T14:19:43;31.50;88.40
25923;DHT22;13725;51.170;4.442;2023-09-12T14:22:09;31.20;89.00
25923;DHT22;13725;51.170;4.442;2023-09-12T14:24:35;31.10;90.70
25923;DHT22;13725;51.170;4.442;2023-09-12T14:27:00;30.80;90.90
25923;DHT22;13725;51.170;4.442;2023-09-12T14:29:26;30.60;92.00
25923;DHT22;13725;51.170;4.442;2023-09-12T14:31:55;30.50;92.60
25923;DHT22;13725;51.170;4.442;2023-09-12T14:34:25;30.40;94.30
25923;DHT22;13725;51.170;4.442;2023-09-12T14:36:55;30.20;95.40
25923;DHT22;13725;51.170;4.442;2023-09-12T14:39:24;30.00;96.90
25923;DHT22;13725;51.170;4.442;2023-09-12T14:41:51;29.80;98.30
25923;DHT22;13725;51.170;4.442;2023-09-12T14:44:26;29.60;99.50
25923;DHT22;13725;51.170;4.442;2023-09-12T14:46:53;29.50;99.90
25923;DHT22;13725;51.170;4.442;2023-09-12T14:49:19;29.20;99.90
25923;DHT22;13725;51.170;4.442;2023-09-12T14:51:45;29.00;99.90
25923;DHT22;13725;51.170;4.442;2023-09-12T14:54:11;28.90;99.90
25923;DHT22;13725;51.170;4.442;2023-09-12T14:56:37;28.70;99.90
25923;DHT22;13725;51.170;4.442;2023-09-12T14:59:04;28.60;99.90
25923;DHT22;13725;51.170;4.442;2023-09-12T15:01:30;28.50;99.90
25923;DHT22;13725;51.170;4.442;2023-09-12T15:03:56;28.40;99.90
25923;DHT22;13725;51.170;4.442;2023-09-12T15:06:22;28.30;99.90
25923;DHT22;13725;51.170;4.442;2023-09-12T15:08:51;28.20;99.90
25923;DHT22;13725;51.170;4.442;2023-09-12T15:11:17;28.10;99.90
25923;DHT22;13725;51.170;4.442;2023-09-12T15:13:44;27.90;99.90
25923;DHT22;13725;51.170;4.442;2023-09-12T15:16:11;27.80;99.90
25923;DHT22;13725;51.170;4.442;2023-09-12T15:18:37;27.80;99.90
25923;DHT22;13725;51.170;4.442;2023-09-12T15:21:05;27.80;99.90
25923;DHT22;13725;51.170;4.442;2023-09-12T15:23:31;27.80;99.90
25923;DHT22;13725;51.170;4.442;2023-09-12T15:25:57;27.70;99.90
25923;DHT22;13725;51.170;4.442;2023-09-12T15:28:23;27.60;99.90
25923;DHT22;13725;51.170;4.442;2023-09-12T15:30:49;27.50;99.90
25923;DHT22;13725;51.170;4.442;2023-09-12T15:33:14;27.40;99.90
25923;DHT22;13725;51.170;4.442;2023-09-12T15:35:40;27.30;99.90
25923;DHT22;13725;51.170;4.442;2023-09-12T15:38:06;27.30;99.90
25923;DHT22;13725;51.170;4.442;2023-09-12T15:40:33;27.20;99.90